createdAt,value
2022-11-29T03:26:13.541Z,148
2022-11-29T03:28:54.845Z,170
2022-11-29T03:30:54.998Z,163
2022-11-29T03:33:54.871Z,168
2022-11-29T03:35:54.891Z,175
2022-11-29T03:37:54.906Z,161
2022-11-29T03:40:54.820Z,216
2022-11-29T03:42:54.863Z,191
2022-11-29T03:45:54.877Z,215
2022-11-29T03:47:54.873Z,175
2022-11-29T03:50:54.866Z,214
2022-11-29T03:52:54.848Z,206
2022-11-29T03:54:54.931Z,213
2022-11-29T03:57:54.866Z,181
2022-11-29T03:59:54.861Z,173
2022-11-29T04:02:56.022Z,190
2022-11-29T04:05:54.862Z,170
2022-11-29T04:08:54.853Z,193
2022-11-29T04:10:55.190Z,158
2022-11-29T04:13:54.858Z,172
2022-11-29T04:16:54.836Z,186
2022-11-29T04:18:54.887Z,173
2022-11-29T04:21:54.809Z,168
2022-11-29T04:23:54.854Z,168
2022-11-29T04:26:54.836Z,164
2022-11-29T04:28:54.851Z,133
2022-11-29T04:31:54.813Z,143
2022-11-29T04:33:54.835Z,165
2022-11-29T04:35:54.832Z,128
2022-11-29T04:38:54.852Z,138
2022-11-29T04:40:54.847Z,159
2022-11-29T04:43:54.854Z,146
2022-11-29T04:45:54.895Z,126
2022-11-29T04:48:54.953Z,120
2022-11-29T04:51:54.834Z,123
2022-11-29T04:53:54.858Z,128
2022-11-29T04:56:54.838Z,137
2022-11-29T04:58:54.874Z,130
2022-11-29T05:01:54.956Z,110
2022-11-29T05:04:54.848Z,125
2022-11-29T05:07:54.854Z,117
2022-11-29T05:10:54.833Z,113
2022-11-29T05:13:54.867Z,122
2022-11-29T05:16:54.844Z,109
2022-11-29T05:19:54.901Z,111
2022-11-29T05:22:54.823Z,122
2022-11-29T05:24:54.851Z,122
2022-11-29T05:27:54.844Z,124
2022-11-29T05:30:54.876Z,140
2022-11-29T05:33:54.857Z,132
2022-11-29T05:36:54.864Z,132
2022-11-29T05:39:54.859Z,132
2022-11-29T05:41:54.833Z,122
2022-11-29T05:44:54.874Z,132
2022-11-29T05:47:54.834Z,141
2022-11-29T05:50:54.836Z,132
2022-11-29T05:53:54.840Z,162
2022-11-29T05:55:54.846Z,139
2022-11-29T05:58:54.862Z,141
2022-11-29T06:01:54.853Z,131
2022-11-29T06:03:54.840Z,134
2022-11-29T06:05:54.897Z,139
2022-11-29T06:08:54.832Z,157
2022-11-29T06:10:54.872Z,140
2022-11-29T06:13:54.868Z,136
2022-11-29T06:15:54.978Z,160
2022-11-29T06:18:54.855Z,135
2022-11-29T06:22:54.916Z,128
2022-11-29T06:25:57.282Z,143
2022-11-29T06:28:54.859Z,166
2022-11-29T06:30:54.857Z,135
2022-11-29T06:32:54.869Z,142
2022-11-29T06:35:54.843Z,160
2022-11-29T06:37:54.881Z,144
2022-11-29T06:40:58.668Z,154
2022-11-29T06:43:54.883Z,162
2022-11-29T06:45:54.859Z,172
2022-11-29T06:48:59.139Z,184
2022-11-29T06:51:54.859Z,170
2022-11-29T06:54:54.861Z,201
2022-11-29T06:57:54.842Z,171
2022-11-29T06:59:54.838Z,143
2022-11-29T07:02:54.846Z,165
2022-11-29T07:04:54.852Z,150
2022-11-29T07:07:54.940Z,171
2022-11-29T07:10:01.424Z,182
2022-11-29T07:12:54.849Z,166
2022-11-29T07:14:54.852Z,184
2022-11-29T07:17:54.849Z,169
2022-11-29T07:19:54.838Z,147
2022-11-29T07:22:54.871Z,148
2022-11-29T07:25:54.831Z,169
2022-11-29T07:28:54.818Z,150
2022-11-29T07:30:54.838Z,135
2022-11-29T07:33:54.825Z,167
2022-11-29T07:36:54.828Z,171
2022-11-29T07:39:54.843Z,169
2022-11-29T07:42:54.853Z,158
2022-11-29T07:45:54.827Z,155
2022-11-29T07:48:54.863Z,126
2022-11-29T07:50:54.868Z,139
2022-11-29T07:53:54.852Z,145
2022-11-29T07:55:54.848Z,131
2022-11-29T07:57:54.857Z,109
2022-11-29T08:00:54.900Z,96
2022-11-29T08:02:54.858Z,114
2022-11-29T08:05:54.840Z,113
2022-11-29T08:08:54.867Z,131
2022-11-29T08:10:54.869Z,97
2022-11-29T08:13:54.845Z,115
2022-11-29T08:15:55.061Z,95
2022-11-29T08:18:54.853Z,84
2022-11-29T08:21:54.872Z,101
2022-11-29T08:24:54.872Z,103
2022-11-29T08:27:54.853Z,82
2022-11-29T08:33:54.875Z,86
2022-11-29T08:36:54.870Z,87
2022-11-29T08:39:54.870Z,115
2022-11-29T08:41:54.865Z,91
2022-11-29T08:44:54.893Z,119
2022-11-29T08:46:54.908Z,91
2022-11-29T08:49:54.865Z,113
2022-11-29T08:52:54.863Z,95
2022-11-29T08:54:58.839Z,95
2022-11-29T08:57:54.864Z,113
2022-11-29T08:59:54.888Z,114
2022-11-29T09:02:54.933Z,119
2022-11-29T09:05:54.888Z,126
2022-11-29T09:07:54.920Z,108
2022-11-29T09:10:54.874Z,113
2022-11-29T09:12:54.914Z,102
2022-11-29T09:16:54.909Z,81
2022-11-29T09:19:54.948Z,94
2022-11-29T09:22:54.888Z,94
2022-11-29T09:24:54.888Z,71
2022-11-29T09:27:54.893Z,101
2022-11-29T09:29:54.880Z,94
2022-11-29T09:32:54.895Z,111
2022-11-29T09:35:54.868Z,106
2022-11-29T09:37:54.888Z,117
2022-11-29T09:40:54.863Z,112
2022-11-29T09:42:54.954Z,69
2022-11-29T09:45:54.928Z,125
2022-11-29T09:48:54.864Z,84
2022-11-29T09:50:54.873Z,99
2022-11-29T09:53:54.877Z,96
2022-11-29T09:56:54.863Z,89
2022-11-29T09:59:54.852Z,81
2022-11-29T10:02:54.896Z,77
2022-11-29T10:05:54.879Z,80
2022-11-29T10:07:54.932Z,69
2022-11-29T10:10:54.882Z,70
2022-11-29T10:12:54.937Z,66
2022-11-29T10:15:54.884Z,66
2022-11-29T10:17:54.882Z,88
2022-11-29T10:20:54.866Z,67
2022-11-29T10:23:54.850Z,79
2022-11-29T10:25:54.866Z,60
2022-11-29T10:28:54.812Z,88
2022-11-29T10:30:55.039Z,65
2022-11-29T10:33:54.874Z,67
2022-11-29T10:36:54.861Z,106
2022-11-29T10:38:54.875Z,71
2022-11-29T10:41:54.842Z,122
2022-11-29T10:43:54.871Z,64
2022-11-29T10:46:54.872Z,95
2022-11-29T10:49:54.869Z,164
2022-11-29T10:52:59.858Z,107
2022-11-29T10:55:54.833Z,107
2022-11-29T10:57:54.876Z,102
2022-11-29T11:00:54.906Z,131
2022-11-29T11:02:54.865Z,75
2022-11-29T11:05:54.883Z,85
2022-11-29T11:08:54.874Z,88
2022-11-29T11:11:54.839Z,118
2022-11-29T11:13:54.853Z,125
2022-11-29T11:16:54.867Z,105
2022-11-29T11:19:01.429Z,116
2022-11-29T11:21:01.428Z,137
2022-11-29T11:23:54.843Z,148
2022-11-29T11:26:54.871Z,167
2022-11-29T11:28:54.867Z,176
2022-11-29T11:31:54.850Z,155
2022-11-29T11:33:54.865Z,162
2022-11-29T11:36:54.861Z,163
2022-11-29T11:39:54.870Z,184
2022-11-29T11:43:54.878Z,195
2022-11-29T11:46:54.863Z,191
2022-11-29T11:48:54.893Z,201
2022-11-29T11:51:54.910Z,227
2022-11-29T11:53:54.960Z,182
2022-11-29T11:56:54.878Z,154
2022-11-29T11:59:01.453Z,164
2022-11-29T12:01:54.877Z,165
2022-11-29T12:04:54.886Z,155
2022-11-29T12:08:08.055Z,203
2022-11-29T12:09:54.905Z,190
2022-11-29T12:11:54.892Z,171
2022-11-29T12:14:54.885Z,243
2022-11-29T12:17:54.892Z,179
2022-11-29T12:20:54.961Z,261
2022-11-29T12:23:54.873Z,218
2022-11-29T12:25:55.092Z,194
2022-11-29T12:28:54.856Z,213
2022-11-29T12:30:54.931Z,208
2022-11-29T12:33:54.841Z,189
2022-11-29T12:35:54.841Z,194
2022-11-29T12:38:54.883Z,215
2022-11-29T12:41:54.881Z,254
2022-11-29T12:44:54.843Z,163
2022-11-29T12:47:07.256Z,201
2022-11-29T12:49:54.832Z,169
2022-11-29T12:51:54.844Z,193
2022-11-29T12:53:54.871Z,216
2022-11-29T12:56:54.891Z,171
2022-11-29T12:58:54.929Z,146
2022-11-29T13:01:54.905Z,188
2022-11-29T13:04:59.511Z,192
2022-11-29T13:06:54.878Z,221
2022-11-29T13:08:54.891Z,190
2022-11-29T13:11:54.867Z,199
2022-11-29T13:14:54.872Z,157
2022-11-29T13:17:54.874Z,185
2022-11-29T13:20:54.843Z,204
2022-11-29T13:22:54.883Z,205
2022-11-29T13:25:54.859Z,151
2022-11-29T13:27:54.880Z,201
2022-11-29T13:30:54.959Z,163
2022-11-29T13:33:54.892Z,152
2022-11-29T13:35:54.886Z,189
2022-11-29T13:38:54.863Z,186
2022-11-29T13:40:54.850Z,237
2022-11-29T13:43:54.862Z,205
2022-11-29T13:46:54.891Z,194
2022-11-29T13:48:54.882Z,213
2022-11-29T13:51:54.873Z,190
2022-11-29T13:55:01.441Z,232
2022-11-29T13:58:15.271Z,214
2022-11-29T13:59:54.863Z,214
2022-11-29T14:01:54.975Z,179
2022-11-29T14:04:54.889Z,173
2022-11-29T14:09:18.185Z,246
2022-11-29T14:11:54.851Z,166
2022-11-29T14:13:54.906Z,191
2022-11-29T14:16:54.862Z,190
2022-11-29T14:18:54.884Z,210
2022-11-29T14:21:54.849Z,207
2022-11-29T14:23:54.890Z,236
2022-11-29T14:25:54.895Z,222
2022-11-29T14:28:54.900Z,229
2022-11-29T14:31:54.881Z,190
2022-11-29T14:33:54.877Z,198
2022-11-29T14:36:54.916Z,202
2022-11-29T14:39:54.862Z,173
2022-11-29T14:41:54.865Z,254
2022-11-29T14:44:54.865Z,175
2022-11-29T14:46:54.905Z,174
2022-11-29T14:48:54.860Z,226
2022-11-29T14:50:54.857Z,200
2022-11-29T14:52:54.831Z,166
2022-11-29T14:54:55.548Z,170
2022-11-29T14:57:54.884Z,139
2022-11-29T15:00:54.946Z,148
2022-11-29T15:03:54.912Z,166
2022-11-29T15:06:54.902Z,161
2022-11-29T15:09:54.842Z,141
2022-11-29T15:11:54.854Z,122
2022-11-29T15:13:54.883Z,119
2022-11-29T15:17:55.143Z,134
2022-11-29T15:20:54.892Z,130
2022-11-29T15:22:54.855Z,123
2022-11-29T15:25:54.913Z,114
2022-11-29T15:28:54.886Z,132
2022-11-29T15:32:54.860Z,119
2022-11-29T15:34:54.858Z,128
2022-11-29T15:36:54.880Z,140
2022-11-29T15:39:54.892Z,127
2022-11-29T15:42:54.879Z,133
2022-11-29T15:44:54.863Z,139
2022-11-29T15:47:54.872Z,135
2022-11-29T15:49:54.884Z,130
2022-11-29T15:52:54.865Z,139
2022-11-29T15:54:54.892Z,135
2022-11-29T15:57:54.892Z,168
2022-11-29T15:59:54.907Z,136
2022-11-29T16:02:54.889Z,152
2022-11-29T16:04:54.901Z,157
2022-11-29T16:07:54.943Z,136
2022-11-29T16:09:54.927Z,109
2022-11-29T16:12:54.877Z,135
2022-11-29T16:14:54.921Z,123
2022-11-29T16:17:54.880Z,145
2022-11-29T16:20:54.875Z,142
2022-11-29T16:23:54.879Z,166
2022-11-29T16:26:54.844Z,131
2022-11-29T16:28:54.877Z,139
2022-11-29T16:30:54.900Z,133
2022-11-29T16:33:54.884Z,165
2022-11-29T16:35:54.900Z,128
2022-11-29T16:37:54.874Z,137
2022-11-29T16:40:54.888Z,131
2022-11-29T16:42:54.886Z,133
2022-11-29T16:45:54.906Z,135
2022-11-29T16:47:54.903Z,124
2022-11-29T16:50:54.899Z,164
2022-11-29T16:52:56.717Z,152
2022-11-29T16:55:54.888Z,157
2022-11-29T16:59:16.732Z,164
2022-11-29T17:01:54.967Z,204
2022-11-29T17:03:54.897Z,225
2022-11-29T17:06:54.916Z,207
2022-11-29T17:11:55.164Z,245
2022-11-29T17:14:54.884Z,248
2022-11-29T17:16:54.961Z,219
2022-11-29T17:18:54.977Z,250
2022-11-29T17:21:54.870Z,261
2022-11-29T17:23:54.892Z,201
2022-11-29T17:26:54.923Z,229
2022-11-29T17:29:54.870Z,201
2022-11-29T17:31:54.937Z,189
2022-11-29T17:34:54.914Z,211
2022-11-29T17:37:54.903Z,189
2022-11-29T17:40:54.861Z,207
2022-11-29T17:43:54.870Z,190
2022-11-29T17:46:54.882Z,198
2022-11-29T17:48:54.898Z,195
2022-11-29T17:50:54.952Z,220
2022-11-29T17:53:54.885Z,218
2022-11-29T17:55:54.906Z,218
2022-11-29T17:58:54.922Z,206
2022-11-29T18:00:55.037Z,215
2022-11-29T18:02:54.867Z,211
2022-11-29T18:04:54.916Z,224
2022-11-29T18:07:54.936Z,200
2022-11-29T18:10:54.872Z,207
2022-11-29T18:13:54.907Z,210
2022-11-29T18:15:54.894Z,218
2022-11-29T18:18:54.882Z,200
2022-11-29T18:20:54.906Z,204
2022-11-29T18:23:54.962Z,225
2022-11-29T18:26:54.879Z,205
2022-11-29T18:28:54.911Z,194
2022-11-29T18:30:54.934Z,207
2022-11-29T18:32:54.893Z,201
2022-11-29T18:35:54.897Z,185
2022-11-29T18:38:54.900Z,216
2022-11-29T18:41:54.846Z,222
2022-11-29T18:43:54.878Z,290
2022-11-29T18:45:54.867Z,291
2022-11-29T18:48:54.877Z,298
2022-11-29T18:50:54.865Z,250
2022-11-29T18:53:54.860Z,284
2022-11-29T18:55:54.867Z,254
2022-11-29T18:58:58.134Z,310
2022-11-29T19:00:54.918Z,340
2022-11-29T19:02:54.884Z,270
2022-11-29T19:05:54.884Z,287
2022-11-29T19:07:54.903Z,294
2022-11-29T19:10:54.847Z,311
2022-11-29T19:12:54.883Z,295
2022-11-29T19:15:54.919Z,315
2022-11-29T19:17:54.875Z,270
2022-11-29T19:20:54.893Z,239
2022-11-29T19:23:54.854Z,289
2022-11-29T19:25:54.938Z,268
2022-11-29T19:28:54.882Z,255
2022-11-29T19:31:54.889Z,276
2022-11-29T19:33:54.893Z,298
2022-11-29T19:36:54.888Z,308
2022-11-29T19:38:54.884Z,247
2022-11-29T19:41:54.921Z,309
2022-11-29T19:43:54.860Z,277
2022-11-29T19:45:54.890Z,299
2022-11-29T19:48:54.854Z,248
2022-11-29T19:50:54.870Z,253
2022-11-29T19:53:54.873Z,299
2022-11-29T19:56:54.869Z,241
2022-11-29T19:58:54.853Z,265
2022-11-29T20:00:54.872Z,266
2022-11-29T20:03:54.900Z,283
2022-11-29T20:05:54.872Z,267
2022-11-29T20:08:54.913Z,242
2022-11-29T20:11:54.895Z,250
2022-11-29T20:13:54.933Z,255
2022-11-29T20:15:54.910Z,259
2022-11-29T20:18:54.890Z,209
2022-11-29T20:20:54.900Z,197
2022-11-29T20:23:54.905Z,212
2022-11-29T20:25:54.890Z,207
2022-11-29T20:27:54.864Z,242
2022-11-29T20:29:54.902Z,178
2022-11-29T20:32:54.887Z,205
2022-11-29T20:35:54.886Z,188
2022-11-29T20:38:01.475Z,229
2022-11-29T20:40:58.202Z,221
2022-11-29T20:42:54.876Z,156
2022-11-29T20:45:54.946Z,146
2022-11-29T20:47:54.898Z,163
2022-11-29T20:50:54.877Z,202
2022-11-29T20:52:54.888Z,191
2022-11-29T20:54:54.911Z,200
2022-11-29T20:56:54.891Z,207
2022-11-29T21:00:54.934Z,240
2022-11-29T21:03:54.974Z,225
2022-11-29T21:06:54.927Z,293
2022-11-29T21:09:59.564Z,205
2022-11-29T21:11:54.940Z,228
2022-11-29T21:14:54.879Z,227
2022-11-29T21:16:54.903Z,190
2022-11-29T21:19:54.879Z,223
2022-11-29T21:21:54.902Z,208
2022-11-29T21:23:54.904Z,195
2022-11-29T21:26:54.896Z,193
2022-11-29T21:28:55.913Z,225
2022-11-29T21:31:54.902Z,216
2022-11-29T21:33:54.922Z,274
2022-11-29T21:36:54.879Z,215
2022-11-29T21:38:55.337Z,235
2022-11-29T21:41:54.911Z,210
2022-11-29T21:44:54.867Z,248
2022-11-29T21:46:55.010Z,196
2022-11-29T21:50:01.466Z,195
2022-11-29T21:52:54.872Z,220
2022-11-29T21:54:54.901Z,247
2022-11-29T21:56:54.896Z,232
2022-11-29T21:59:54.923Z,220
2022-11-29T22:02:55.015Z,279
2022-11-29T22:05:54.922Z,232
2022-11-29T22:07:54.974Z,190
2022-11-29T22:10:08.518Z,277
2022-11-29T22:12:19.715Z,240
2022-11-29T22:14:54.979Z,286
2022-11-29T22:17:54.950Z,313
2022-11-29T22:19:54.918Z,206
2022-11-29T22:22:05.251Z,256
2022-11-29T22:24:54.955Z,213
2022-11-29T22:27:54.936Z,253
2022-11-29T22:29:54.936Z,246
2022-11-29T22:31:54.937Z,266
2022-11-29T22:34:54.982Z,254
2022-11-29T22:37:54.956Z,241
2022-11-29T22:39:54.957Z,204
2022-11-29T22:42:54.940Z,266
2022-11-29T22:44:55.019Z,247
2022-11-29T22:47:54.970Z,277
2022-11-29T22:49:54.970Z,252
2022-11-29T22:52:54.951Z,215
2022-11-29T22:54:57.651Z,265
2022-11-29T22:58:05.241Z,255
2022-11-29T23:00:55.027Z,254
2022-11-29T23:03:54.943Z,222
2022-11-29T23:06:54.958Z,242
2022-11-29T23:10:05.248Z,230
2022-11-29T23:12:54.978Z,262
2022-11-29T23:14:56.662Z,267
2022-11-29T23:17:54.979Z,243
2022-11-29T23:20:05.236Z,224
2022-11-29T23:23:56.700Z,281
2022-11-29T23:26:54.980Z,260
2022-11-29T23:29:54.991Z,240
2022-11-29T23:32:54.955Z,269
2022-11-29T23:34:54.958Z,271
2022-11-29T23:36:54.994Z,261
2022-11-29T23:39:54.956Z,256
2022-11-29T23:41:54.993Z,255
2022-11-29T23:44:54.971Z,236
2022-11-29T23:47:54.962Z,331
2022-11-29T23:49:54.980Z,239
2022-11-29T23:52:54.966Z,256
2022-11-29T23:54:54.961Z,268
2022-11-29T23:56:55.986Z,264
2022-11-29T23:58:54.979Z,260
